createdAt,value
2023-01-13T00:00:12.213Z,953.3
2023-01-13T00:01:14.141Z,953.3
2023-01-13T00:02:16.226Z,953.3
2023-01-13T00:03:18.226Z,953.3
2023-01-13T00:04:20.178Z,953.3
2023-01-13T00:05:22.038Z,953.4
2023-01-13T00:06:23.903Z,953.4
2023-01-13T00:07:25.883Z,953.4
2023-01-13T00:08:27.689Z,953.4
2023-01-13T00:09:29.542Z,953.4
2023-01-13T00:10:31.587Z,953.4
2023-01-13T00:11:33.436Z,953.4
2023-01-13T00:12:35.204Z,953.4
2023-01-13T00:13:37.052Z,953.4
2023-01-13T00:14:41.853Z,953.4
2023-01-13T00:15:43.834Z,953.4
2023-01-13T00:16:45.650Z,953.4
2023-01-13T00:17:47.543Z,953.4
2023-01-13T00:18:49.355Z,953.4
2023-01-13T00:19:50.996Z,953.4
2023-01-13T00:20:52.951Z,953.4
2023-01-13T00:21:54.809Z,953.3
2023-01-13T00:22:56.651Z,953.4
2023-01-13T00:23:58.408Z,953.4
2023-01-13T00:25:00.087Z,953.4
2023-01-13T00:26:01.906Z,953.4
2023-01-13T00:27:03.848Z,953.4
2023-01-13T00:28:05.696Z,953.4
2023-01-13T00:29:07.543Z,953.4
2023-01-13T00:30:09.187Z,953.4
2023-01-13T00:31:11.307Z,953.4
2023-01-13T00:32:13.305Z,953.4
2023-01-13T00:33:15.180Z,953.4
2023-01-13T00:34:17.005Z,953.4
2023-01-13T00:35:18.893Z,953.4
2023-01-13T00:36:20.835Z,953.4
2023-01-13T00:37:22.656Z,953.4
2023-01-13T00:38:24.510Z,953.4
2023-01-13T00:39:26.399Z,953.4
2023-01-13T00:40:28.315Z,953.5
2023-01-13T00:41:30.160Z,953.4
2023-01-13T00:42:32.144Z,953.4
2023-01-13T00:43:33.917Z,953.4
2023-01-13T00:44:35.819Z,953.4
2023-01-13T00:45:37.573Z,953.4
2023-01-13T00:46:39.525Z,953.4
2023-01-13T00:47:41.620Z,953.4
2023-01-13T00:48:43.437Z,953.4
2023-01-13T00:49:45.298Z,953.4
2023-01-13T00:50:47.106Z,953.4
2023-01-13T00:51:48.783Z,953.4
2023-01-13T00:52:50.605Z,953.4
2023-01-13T00:53:52.498Z,953.4
2023-01-13T00:54:54.304Z,953.3
2023-01-13T00:55:56.080Z,953.4
2023-01-13T00:56:57.909Z,953.4
2023-01-13T00:57:59.765Z,953.4
2023-01-13T00:59:01.606Z,953.3
2023-01-13T01:00:03.450Z,953.3
2023-01-13T01:01:05.713Z,953.3
2023-01-13T01:02:08.120Z,953.3
2023-01-13T01:03:10.095Z,953.3
2023-01-13T01:04:12.134Z,953.2
2023-01-13T01:05:14.052Z,953.2
2023-01-13T01:06:15.929Z,953.2
2023-01-13T01:07:18.142Z,953.2
2023-01-13T01:08:19.899Z,953.2
2023-01-13T01:09:21.747Z,953.2
2023-01-13T01:10:23.602Z,953.2
2023-01-13T01:11:25.371Z,953.2
2023-01-13T01:12:27.500Z,953.2
2023-01-13T01:13:29.497Z,953.2
2023-01-13T01:14:31.331Z,953.2
2023-01-13T01:15:33.152Z,953.1
2023-01-13T01:16:35.452Z,953.1
2023-01-13T01:17:37.283Z,953.1
2023-01-13T01:18:39.011Z,953.1
2023-01-13T01:19:41.116Z,953.1
2023-01-13T01:20:42.911Z,953.1
2023-01-13T01:21:44.669Z,953.2
2023-01-13T01:22:46.417Z,953.1
2023-01-13T01:23:48.257Z,953.1
2023-01-13T01:24:50.209Z,953.1
2023-01-13T01:25:52.076Z,953.1
2023-01-13T01:26:53.906Z,953.1
2023-01-13T01:27:55.970Z,953.1
2023-01-13T01:28:57.814Z,953.1
2023-01-13T01:29:59.671Z,953.1
2023-01-13T01:31:01.645Z,953.1
2023-01-13T01:32:03.468Z,953.1
2023-01-13T01:33:05.212Z,953.1
2023-01-13T01:34:07.173Z,953.1
2023-01-13T01:35:09.012Z,953.1
2023-01-13T01:36:10.877Z,953.1
2023-01-13T01:37:12.730Z,953.1
2023-01-13T01:38:14.684Z,953.1
2023-01-13T01:39:16.627Z,953.1
2023-01-13T01:40:18.614Z,953.1
2023-01-13T01:41:20.376Z,953
2023-01-13T01:42:22.178Z,953.1
2023-01-13T01:43:24.002Z,953
2023-01-13T01:44:25.977Z,953
2023-01-13T01:45:27.847Z,953
2023-01-13T01:46:30.053Z,953
2023-01-13T01:47:32.066Z,953
2023-01-13T01:48:33.890Z,953
2023-01-13T01:49:35.870Z,953
2023-01-13T01:50:37.709Z,953
2023-01-13T01:51:39.600Z,953
2023-01-13T01:52:41.511Z,953
2023-01-13T01:53:43.757Z,953
2023-01-13T01:54:45.514Z,953
2023-01-13T01:55:47.249Z,953
2023-01-13T01:56:48.913Z,953
2023-01-13T01:57:50.801Z,953
2023-01-13T01:58:52.593Z,953
2023-01-13T01:59:54.457Z,953
2023-01-13T02:00:56.714Z,953
2023-01-13T02:01:59.291Z,953
2023-01-13T02:03:01.349Z,953.1
2023-01-13T02:04:03.170Z,953
2023-01-13T02:05:05.133Z,953
2023-01-13T02:06:07.006Z,953
2023-01-13T02:07:08.827Z,953
2023-01-13T02:08:10.778Z,953
2023-01-13T02:09:12.624Z,953
2023-01-13T02:10:14.483Z,953
2023-01-13T02:11:16.328Z,953
2023-01-13T02:12:18.173Z,953
2023-01-13T02:13:20.146Z,953
2023-01-13T02:14:22.090Z,953
2023-01-13T02:15:23.946Z,953
2023-01-13T02:16:25.811Z,952.9
2023-01-13T02:17:27.549Z,952.9
2023-01-13T02:18:29.410Z,953
2023-01-13T02:19:31.252Z,952.9
2023-01-13T02:20:33.087Z,952.9
2023-01-13T02:21:34.957Z,952.9
2023-01-13T02:22:36.782Z,952.9
2023-01-13T02:23:38.661Z,952.9
2023-01-13T02:24:40.668Z,952.9
2023-01-13T02:25:42.736Z,952.9
2023-01-13T02:26:44.696Z,952.9
2023-01-13T02:27:46.948Z,952.9
2023-01-13T02:28:49.148Z,952.9
2023-01-13T02:29:51.060Z,952.9
2023-01-13T02:30:52.876Z,952.9
2023-01-13T02:31:54.925Z,952.9
2023-01-13T02:32:56.987Z,952.9
2023-01-13T02:33:58.877Z,952.9
2023-01-13T02:35:00.719Z,952.9
2023-01-13T02:36:02.570Z,952.9
2023-01-13T02:37:04.442Z,953
2023-01-13T02:38:06.422Z,952.9
2023-01-13T02:39:08.087Z,952.9
2023-01-13T02:40:09.963Z,952.9
2023-01-13T02:41:11.916Z,952.9
2023-01-13T02:42:13.663Z,952.9
2023-01-13T02:43:15.618Z,952.9
2023-01-13T02:44:17.383Z,953
2023-01-13T02:45:19.293Z,953
2023-01-13T02:46:21.400Z,952.9
2023-01-13T02:47:23.223Z,953
2023-01-13T02:48:24.983Z,953
2023-01-13T02:49:26.952Z,952.9
2023-01-13T02:50:28.809Z,953
2023-01-13T02:51:30.560Z,952.9
2023-01-13T02:52:32.512Z,952.9
2023-01-13T02:53:34.353Z,952.9
2023-01-13T02:54:36.143Z,952.9
2023-01-13T02:55:38.189Z,952.9
2023-01-13T02:56:40.115Z,952.9
2023-01-13T02:57:41.850Z,953
2023-01-13T02:58:43.717Z,953
2023-01-13T02:59:45.633Z,953
2023-01-13T03:00:47.609Z,952.9
2023-01-13T03:01:49.785Z,952.9
2023-01-13T03:02:51.935Z,952.9
2023-01-13T03:03:53.848Z,953
2023-01-13T03:04:55.707Z,953
2023-01-13T03:05:57.872Z,953
2023-01-13T03:06:59.711Z,953
2023-01-13T03:08:01.713Z,952.9
2023-01-13T03:09:03.513Z,952.9
2023-01-13T03:10:05.560Z,952.9
2023-01-13T03:11:07.514Z,952.9
2023-01-13T03:12:09.377Z,953
2023-01-13T03:13:11.215Z,952.9
2023-01-13T03:14:16.105Z,952.9
2023-01-13T03:15:17.887Z,952.9
2023-01-13T03:16:19.974Z,953
2023-01-13T03:17:21.840Z,953
2023-01-13T03:18:23.781Z,953
2023-01-13T03:19:25.628Z,952.9
2023-01-13T03:20:27.480Z,953
2023-01-13T03:21:29.301Z,953
2023-01-13T03:22:31.267Z,952.9
2023-01-13T03:23:33.251Z,953
2023-01-13T03:24:35.265Z,953
2023-01-13T03:25:36.937Z,952.9
2023-01-13T03:26:41.328Z,953
2023-01-13T03:27:43.182Z,952.9
2023-01-13T03:28:45.006Z,953
2023-01-13T03:29:47.000Z,953
2023-01-13T03:30:49.053Z,953
2023-01-13T03:31:50.866Z,953
2023-01-13T03:32:55.625Z,953
2023-01-13T03:33:57.330Z,953
2023-01-13T03:34:59.178Z,953
2023-01-13T03:36:01.157Z,953
2023-01-13T03:37:02.981Z,953
2023-01-13T03:38:04.929Z,953
2023-01-13T03:39:06.919Z,953
2023-01-13T03:40:08.732Z,953
2023-01-13T03:41:10.493Z,953
2023-01-13T03:42:12.449Z,953
2023-01-13T03:43:14.531Z,953
2023-01-13T03:44:19.111Z,953
2023-01-13T03:45:20.955Z,953
2023-01-13T03:46:23.253Z,953
2023-01-13T03:47:25.379Z,953
2023-01-13T03:48:27.329Z,953
2023-01-13T03:49:29.178Z,953
2023-01-13T03:50:31.023Z,953
2023-01-13T03:51:32.781Z,953
2023-01-13T03:52:34.748Z,953.1
2023-01-13T03:53:36.726Z,953.1
2023-01-13T03:54:38.558Z,953.1
2023-01-13T03:55:40.376Z,953.1
2023-01-13T03:56:42.245Z,953.1
2023-01-13T03:57:44.299Z,953.1
2023-01-13T03:58:46.131Z,953.1
2023-01-13T03:59:47.978Z,953
2023-01-13T04:00:49.773Z,953
2023-01-13T04:01:52.079Z,953
2023-01-13T04:02:54.264Z,953
2023-01-13T04:03:56.333Z,953.1
2023-01-13T04:04:58.254Z,953
2023-01-13T04:06:00.218Z,953
2023-01-13T04:07:02.158Z,953.1
2023-01-13T04:08:04.101Z,953
2023-01-13T04:09:05.977Z,953.1
2023-01-13T04:10:07.855Z,953.1
2023-01-13T04:11:09.714Z,953.1
2023-01-13T04:12:11.516Z,953.1
2023-01-13T04:13:13.365Z,953.1
2023-01-13T04:14:15.212Z,953.1
2023-01-13T04:15:17.185Z,953.1
2023-01-13T04:16:19.159Z,953.1
2023-01-13T04:17:20.973Z,953.1
2023-01-13T04:18:22.939Z,953.1
2023-01-13T04:19:24.781Z,953.1
2023-01-13T04:20:26.645Z,953.2
2023-01-13T04:21:28.573Z,953.1
2023-01-13T04:22:30.656Z,953.1
2023-01-13T04:23:32.600Z,953.2
2023-01-13T04:24:34.410Z,953.2
2023-01-13T04:25:36.409Z,953.2
2023-01-13T04:26:38.275Z,953.2
2023-01-13T04:27:40.094Z,953.2
2023-01-13T04:28:42.051Z,953.2
2023-01-13T04:29:43.881Z,953.2
2023-01-13T04:30:45.901Z,953.2
2023-01-13T04:31:47.894Z,953.2
2023-01-13T04:32:49.653Z,953.2
2023-01-13T04:33:51.597Z,953.3
2023-01-13T04:34:53.448Z,953.2
2023-01-13T04:35:55.250Z,953.3
2023-01-13T04:36:57.155Z,953.3
2023-01-13T04:37:58.999Z,953.3
2023-01-13T04:39:00.949Z,953.3
2023-01-13T04:40:02.803Z,953.3
2023-01-13T04:41:04.641Z,953.3
2023-01-13T04:42:06.620Z,953.3
2023-01-13T04:43:08.554Z,953.3
2023-01-13T04:44:10.500Z,953.3
2023-01-13T04:45:12.366Z,953.3
2023-01-13T04:46:14.478Z,953.3
2023-01-13T04:47:16.476Z,953.3
2023-01-13T04:48:18.326Z,953.3
2023-01-13T04:49:20.287Z,953.3
2023-01-13T04:50:22.013Z,953.3
2023-01-13T04:51:23.870Z,953.3
2023-01-13T04:52:25.725Z,953.3
2023-01-13T04:53:27.701Z,953.3
2023-01-13T04:54:29.820Z,953.2
2023-01-13T04:55:31.681Z,953.3
2023-01-13T04:56:33.547Z,953.3
2023-01-13T04:57:35.391Z,953.3
2023-01-13T04:58:37.347Z,953.3
2023-01-13T04:59:39.170Z,953.3
2023-01-13T05:00:41.028Z,953.3
2023-01-13T05:01:43.228Z,953.3
2023-01-13T05:02:45.271Z,953.3
2023-01-13T05:03:47.193Z,953.3
2023-01-13T05:04:49.297Z,953.3
2023-01-13T05:05:51.309Z,953.3
2023-01-13T05:06:53.161Z,953.3
2023-01-13T05:07:54.914Z,953.3
2023-01-13T05:08:56.768Z,953.3
2023-01-13T05:09:58.715Z,953.3
2023-01-13T05:11:00.667Z,953.4
2023-01-13T05:12:02.634Z,953.4
2023-01-13T05:13:04.462Z,953.4
2023-01-13T05:14:06.329Z,953.4
2023-01-13T05:15:08.209Z,953.4
2023-01-13T05:16:11.881Z,953.4
2023-01-13T05:17:13.703Z,953.4
2023-01-13T05:18:15.568Z,953.4
2023-01-13T05:19:17.506Z,953.4
2023-01-13T05:20:19.365Z,953.4
2023-01-13T05:21:21.252Z,953.4
2023-01-13T05:22:23.090Z,953.4
2023-01-13T05:23:24.921Z,953.4
2023-01-13T05:24:26.899Z,953.4
2023-01-13T05:25:28.702Z,953.4
2023-01-13T05:26:30.667Z,953.4
2023-01-13T05:27:32.510Z,953.4
2023-01-13T05:28:34.615Z,953.4
2023-01-13T05:29:36.615Z,953.4
2023-01-13T05:30:38.572Z,953.4
2023-01-13T05:31:40.429Z,953.4
2023-01-13T05:32:42.270Z,953.4
2023-01-13T05:33:44.044Z,953.4
2023-01-13T05:34:45.977Z,953.4
2023-01-13T05:35:48.078Z,953.4
2023-01-13T05:36:49.898Z,953.4
2023-01-13T05:37:51.722Z,953.4
2023-01-13T05:38:53.585Z,953.5
2023-01-13T05:39:55.429Z,953.4
2023-01-13T05:40:59.841Z,953.5
2023-01-13T05:42:01.688Z,953.5
2023-01-13T05:43:03.567Z,953.5
2023-01-13T05:44:05.493Z,953.5
2023-01-13T05:45:07.355Z,953.5
2023-01-13T05:46:09.624Z,953.5
2023-01-13T05:47:11.656Z,953.6
2023-01-13T05:48:13.598Z,953.5
2023-01-13T05:49:15.561Z,953.5
2023-01-13T05:50:17.415Z,953.5
2023-01-13T05:51:19.261Z,953.5
2023-01-13T05:52:21.111Z,953.5
2023-01-13T05:53:23.078Z,953.5
2023-01-13T05:54:25.012Z,953.5
2023-01-13T05:55:26.877Z,953.5
2023-01-13T05:56:28.816Z,953.5
2023-01-13T05:57:30.664Z,953.6
2023-01-13T05:58:32.631Z,953.5
2023-01-13T05:59:34.571Z,953.6
2023-01-13T06:00:36.439Z,953.5
2023-01-13T06:01:38.289Z,953.5
2023-01-13T06:02:40.447Z,953.6
2023-01-13T06:03:42.374Z,953.6
2023-01-13T06:04:44.494Z,953.6
2023-01-13T06:05:46.406Z,953.6
2023-01-13T06:06:48.335Z,953.6
2023-01-13T06:07:50.195Z,953.6
2023-01-13T06:08:52.030Z,953.6
2023-01-13T06:09:53.846Z,953.6
2023-01-13T06:10:55.742Z,953.6
2023-01-13T06:11:57.581Z,953.6
2023-01-13T06:12:59.340Z,953.6
2023-01-13T06:14:01.423Z,953.6
2023-01-13T06:15:03.249Z,953.7
2023-01-13T06:16:05.293Z,953.6
2023-01-13T06:17:07.137Z,953.7
2023-01-13T06:18:09.025Z,953.6
2023-01-13T06:19:10.839Z,953.7
2023-01-13T06:20:12.595Z,953.7
2023-01-13T06:21:14.567Z,953.7
2023-01-13T06:22:16.421Z,953.7
2023-01-13T06:23:18.183Z,953.7
2023-01-13T06:24:19.997Z,953.7
2023-01-13T06:25:22.064Z,953.7
2023-01-13T06:26:24.027Z,953.7
2023-01-13T06:27:25.981Z,953.7
2023-01-13T06:28:27.840Z,953.7
2023-01-13T06:29:29.772Z,953.7
2023-01-13T06:30:31.727Z,953.7
2023-01-13T06:31:33.812Z,953.7
2023-01-13T06:32:35.718Z,953.7
2023-01-13T06:33:37.788Z,953.7
2023-01-13T06:34:39.627Z,953.7
2023-01-13T06:35:41.328Z,953.7
2023-01-13T06:36:43.313Z,953.7
2023-01-13T06:37:45.175Z,953.7
2023-01-13T06:38:47.018Z,953.7
2023-01-13T06:39:48.865Z,953.7
2023-01-13T06:40:50.830Z,953.7
2023-01-13T06:41:52.809Z,953.7
2023-01-13T06:42:54.581Z,953.7
2023-01-13T06:43:56.386Z,953.8
2023-01-13T06:44:58.346Z,953.7
2023-01-13T06:46:00.289Z,953.7
2023-01-13T06:47:02.296Z,953.8
2023-01-13T06:48:04.143Z,953.8
2023-01-13T06:49:06.003Z,953.7
2023-01-13T06:50:07.891Z,953.8
2023-01-13T06:51:09.797Z,953.8
2023-01-13T06:52:11.728Z,953.8
2023-01-13T06:53:13.745Z,953.8
2023-01-13T06:54:15.487Z,953.8
2023-01-13T06:55:17.385Z,953.8
2023-01-13T06:56:19.317Z,953.8
2023-01-13T06:57:21.258Z,953.8
2023-01-13T06:58:23.416Z,953.8
2023-01-13T06:59:25.287Z,953.8
2023-01-13T07:00:27.255Z,953.8
2023-01-13T07:01:29.611Z,953.8
2023-01-13T07:02:31.885Z,953.8
2023-01-13T07:03:33.776Z,953.8
2023-01-13T07:04:35.525Z,953.8
2023-01-13T07:05:37.498Z,953.8
2023-01-13T07:06:39.364Z,953.8
2023-01-13T07:07:41.335Z,953.8
2023-01-13T07:08:43.310Z,953.8
2023-01-13T07:09:45.142Z,953.8
2023-01-13T07:10:47.041Z,953.8
2023-01-13T07:11:49.007Z,953.8
2023-01-13T07:12:50.856Z,953.8
2023-01-13T07:13:52.706Z,953.7
2023-01-13T07:14:54.674Z,953.8
2023-01-13T07:15:56.636Z,953.8
2023-01-13T07:16:58.490Z,953.7
2023-01-13T07:18:00.567Z,953.7
2023-01-13T07:19:02.517Z,953.7
2023-01-13T07:20:04.531Z,953.7
2023-01-13T07:21:06.478Z,953.7
2023-01-13T07:22:08.399Z,953.7
2023-01-13T07:23:10.688Z,953.8
2023-01-13T07:24:12.536Z,953.7
2023-01-13T07:25:14.384Z,953.8
2023-01-13T07:26:16.252Z,953.7
2023-01-13T07:27:18.080Z,953.7
2023-01-13T07:28:20.048Z,953.7
2023-01-13T07:29:21.936Z,953.7
2023-01-13T07:30:23.740Z,953.7
2023-01-13T07:31:26.058Z,953.7
2023-01-13T07:32:28.049Z,953.7
2023-01-13T07:33:29.903Z,953.7
2023-01-13T07:34:31.803Z,953.7
2023-01-13T07:35:34.202Z,953.7
2023-01-13T07:36:36.034Z,953.7
2023-01-13T07:37:38.133Z,953.7
2023-01-13T07:38:40.172Z,953.7
2023-01-13T07:39:42.019Z,953.7
2023-01-13T07:40:43.870Z,953.7
2023-01-13T07:41:45.729Z,953.7
2023-01-13T07:42:48.053Z,953.7
2023-01-13T07:43:49.828Z,953.7
2023-01-13T07:44:51.683Z,953.7
2023-01-13T07:45:53.872Z,953.7
2023-01-13T07:46:55.712Z,953.7
2023-01-13T07:47:57.490Z,953.7
2023-01-13T07:48:59.526Z,953.7
2023-01-13T07:50:01.350Z,953.7
2023-01-13T07:51:03.191Z,953.7
2023-01-13T07:52:05.060Z,953.7
2023-01-13T07:53:07.009Z,953.7
2023-01-13T07:54:08.829Z,953.7
2023-01-13T07:55:10.922Z,953.7
2023-01-13T07:56:12.991Z,953.7
2023-01-13T07:57:14.830Z,953.7
2023-01-13T07:58:16.679Z,953.8
2023-01-13T07:59:18.559Z,953.8
2023-01-13T08:00:20.455Z,953.8
2023-01-13T08:01:22.838Z,953.8
2023-01-13T08:02:25.810Z,953.8
2023-01-13T08:03:28.057Z,953.8
2023-01-13T08:04:30.092Z,953.8
2023-01-13T08:05:31.864Z,953.8
2023-01-13T08:06:33.833Z,953.8
2023-01-13T08:07:35.802Z,953.8
2023-01-13T08:08:37.638Z,953.8
2023-01-13T08:09:39.597Z,953.9
2023-01-13T08:10:41.526Z,953.8
2023-01-13T08:11:43.369Z,953.9
2023-01-13T08:12:57.416Z,953.9
2023-01-13T08:13:59.373Z,953.9
2023-01-13T08:15:01.644Z,953.9
2023-01-13T08:16:03.471Z,953.9
2023-01-13T08:17:05.222Z,953.9
2023-01-13T08:18:07.182Z,953.9
2023-01-13T08:19:09.141Z,953.9
2023-01-13T08:20:10.980Z,953.9
2023-01-13T08:21:12.817Z,953.9
2023-01-13T08:22:14.677Z,953.8
2023-01-13T08:23:16.482Z,953.9
2023-01-13T08:24:18.473Z,953.9
2023-01-13T08:25:20.328Z,953.8
2023-01-13T08:26:22.434Z,953.9
2023-01-13T08:27:24.433Z,953.9
2023-01-13T08:28:26.289Z,953.8
2023-01-13T08:29:28.659Z,953.8
2023-01-13T08:30:30.917Z,953.8
2023-01-13T08:31:33.434Z,953.8
2023-01-13T08:32:35.424Z,953.8
2023-01-13T08:33:37.490Z,953.8
2023-01-13T08:34:39.433Z,953.8
2023-01-13T08:35:41.281Z,953.8
2023-01-13T08:36:43.228Z,953.8
2023-01-13T08:37:45.211Z,953.8
2023-01-13T08:38:47.273Z,953.8
2023-01-13T08:39:49.180Z,953.8
2023-01-13T08:40:51.136Z,953.8
2023-01-13T08:41:52.994Z,953.8
2023-01-13T08:42:54.848Z,953.8
2023-01-13T08:43:57.129Z,953.7
2023-01-13T08:44:59.470Z,953.8
2023-01-13T08:46:01.910Z,953.8
2023-01-13T08:47:03.975Z,953.8
2023-01-13T08:48:05.821Z,953.7
2023-01-13T08:49:07.823Z,953.7
2023-01-13T08:50:09.833Z,953.7
2023-01-13T08:51:11.788Z,953.7
2023-01-13T08:52:13.773Z,953.7
2023-01-13T08:53:15.827Z,953.7
2023-01-13T08:54:17.770Z,953.7
2023-01-13T08:55:19.630Z,953.7
2023-01-13T08:56:21.673Z,953.7
2023-01-13T08:57:23.738Z,953.7
2023-01-13T08:58:26.020Z,953.7
2023-01-13T08:59:28.009Z,953.7
2023-01-13T09:00:29.988Z,953.7
2023-01-13T09:01:32.007Z,953.7
2023-01-13T09:02:34.210Z,953.7
2023-01-13T09:03:36.260Z,953.7
2023-01-13T09:04:38.471Z,953.7
2023-01-13T09:05:40.460Z,953.7
2023-01-13T09:06:42.417Z,953.7
2023-01-13T09:07:44.681Z,953.7
2023-01-13T09:08:46.636Z,953.7
2023-01-13T09:09:48.609Z,953.6
2023-01-13T09:10:50.780Z,953.7
2023-01-13T09:11:52.802Z,953.7
2023-01-13T09:12:54.651Z,953.7
2023-01-13T09:13:57.001Z,953.7
2023-01-13T09:14:58.766Z,953.6
2023-01-13T09:16:01.110Z,953.6
2023-01-13T09:17:03.224Z,953.6
2023-01-13T09:18:05.112Z,953.6
2023-01-13T09:19:07.283Z,953.6
2023-01-13T09:20:09.150Z,953.6
2023-01-13T09:21:11.112Z,953.6
2023-01-13T09:22:13.037Z,953.6
2023-01-13T09:23:14.979Z,953.6
2023-01-13T09:24:16.819Z,953.6
2023-01-13T09:25:18.765Z,953.6
2023-01-13T09:26:21.213Z,953.6
2023-01-13T09:27:23.202Z,953.6
2023-01-13T09:28:25.153Z,953.6
2023-01-13T09:29:27.007Z,953.5
2023-01-13T09:30:28.875Z,953.5
2023-01-13T09:31:30.946Z,953.5
2023-01-13T09:32:33.357Z,953.5
2023-01-13T09:33:35.216Z,953.5
2023-01-13T09:34:37.078Z,953.5
2023-01-13T09:35:38.985Z,953.5
2023-01-13T09:36:41.194Z,953.5
2023-01-13T09:37:43.019Z,953.5
2023-01-13T09:38:44.882Z,953.5
2023-01-13T09:39:46.829Z,953.5
2023-01-13T09:40:48.678Z,953.5
2023-01-13T09:41:50.542Z,953.5
2023-01-13T09:42:52.383Z,953.5
2023-01-13T09:43:54.453Z,953.5
2023-01-13T09:44:56.227Z,953.5
2023-01-13T09:45:58.267Z,953.6
2023-01-13T09:47:00.769Z,953.6
2023-01-13T09:48:02.576Z,953.6
2023-01-13T09:49:04.529Z,953.6
2023-01-13T09:50:06.563Z,953.6
2023-01-13T09:51:08.728Z,953.6
2023-01-13T09:52:10.694Z,953.6
2023-01-13T09:53:12.520Z,953.6
2023-01-13T09:54:14.701Z,953.6
2023-01-13T09:55:16.540Z,953.6
2023-01-13T09:56:18.386Z,953.6
2023-01-13T09:57:20.226Z,953.5
2023-01-13T09:58:22.451Z,953.5
2023-01-13T09:59:24.557Z,953.5
2023-01-13T10:00:26.919Z,953.5
2023-01-13T10:01:28.973Z,953.5
2023-01-13T10:02:30.907Z,953.5
2023-01-13T10:03:33.753Z,953.5
2023-01-13T10:04:36.090Z,953.5
2023-01-13T10:05:37.897Z,953.5
2023-01-13T10:06:39.886Z,953.5
2023-01-13T10:07:41.697Z,953.6
2023-01-13T10:08:43.451Z,953.5
2023-01-13T10:09:45.430Z,953.5
2023-01-13T10:10:47.361Z,953.5
2023-01-13T10:11:49.372Z,953.5
2023-01-13T10:12:51.209Z,953.5
2023-01-13T10:13:53.118Z,953.5
2023-01-13T10:14:55.074Z,953.5
2023-01-13T10:15:57.130Z,953.4
2023-01-13T10:16:59.185Z,953.4
2023-01-13T10:18:01.221Z,953.4
2023-01-13T10:19:03.071Z,953.4
2023-01-13T10:20:05.026Z,953.4
2023-01-13T10:21:07.354Z,953.4
2023-01-13T10:22:10.113Z,953.4
2023-01-13T10:23:12.012Z,953.4
2023-01-13T10:24:14.270Z,953.4
2023-01-13T10:25:16.241Z,953.4
2023-01-13T10:26:18.398Z,953.3
2023-01-13T10:27:20.524Z,953.4
2023-01-13T10:28:22.386Z,953.4
2023-01-13T10:29:24.737Z,953.3
2023-01-13T10:30:26.946Z,953.4
2023-01-13T10:31:29.211Z,953.4
2023-01-13T10:32:31.470Z,953.4
2023-01-13T10:33:33.383Z,953.3
2023-01-13T10:34:35.196Z,953.3
2023-01-13T10:35:37.295Z,953.3
2023-01-13T10:36:39.184Z,953.3
2023-01-13T10:37:41.247Z,953.3
2023-01-13T10:38:43.477Z,953.3
2023-01-13T10:39:46.697Z,953.3
2023-01-13T10:40:48.605Z,953.3
2023-01-13T10:41:50.429Z,953.3
2023-01-13T10:42:52.280Z,953.3
2023-01-13T10:43:54.340Z,953.3
2023-01-13T10:44:56.392Z,953.3
2023-01-13T10:45:58.302Z,953.3
2023-01-13T10:47:00.270Z,953.3
2023-01-13T10:48:02.147Z,953.3
2023-01-13T10:49:04.021Z,953.3
2023-01-13T10:50:09.885Z,953.2
2023-01-13T10:51:11.998Z,953.2
2023-01-13T10:52:14.219Z,953.2
2023-01-13T10:53:16.299Z,953.2
2023-01-13T10:54:18.164Z,953.2
2023-01-13T10:55:19.961Z,953.2
2023-01-13T10:56:21.859Z,953.2
2023-01-13T10:57:23.705Z,953.2
2023-01-13T10:58:25.376Z,953.2
2023-01-13T10:59:27.308Z,953.1
2023-01-13T11:00:29.154Z,953.2
2023-01-13T11:01:31.386Z,953.2
2023-01-13T11:02:34.153Z,953.2
2023-01-13T11:03:36.139Z,953.2
2023-01-13T11:04:38.273Z,953.2
2023-01-13T11:05:40.552Z,953.2
2023-01-13T11:06:42.676Z,953.2
2023-01-13T11:07:45.089Z,953.1
2023-01-13T11:08:47.090Z,953.1
2023-01-13T11:09:49.046Z,953.1
2023-01-13T11:10:50.940Z,953.1
2023-01-13T11:11:53.523Z,953.1
2023-01-13T11:12:55.559Z,953.1
2023-01-13T11:13:57.432Z,953.1
2023-01-13T11:14:59.378Z,953
2023-01-13T11:16:01.354Z,953.1
2023-01-13T11:17:03.282Z,953.1
2023-01-13T11:18:05.626Z,953
2023-01-13T11:19:07.476Z,953
2023-01-13T11:20:09.426Z,953
2023-01-13T11:21:11.371Z,953
2023-01-13T11:22:13.435Z,953
2023-01-13T11:23:15.237Z,953
2023-01-13T11:24:17.264Z,953
2023-01-13T11:25:19.099Z,953
2023-01-13T11:26:20.932Z,952.9
2023-01-13T11:27:22.809Z,952.9
2023-01-13T11:28:24.737Z,952.9
2023-01-13T11:29:26.592Z,952.9
2023-01-13T11:30:28.399Z,952.9
2023-01-13T11:31:30.433Z,952.9
2023-01-13T11:32:32.571Z,953
2023-01-13T11:33:34.495Z,953
2023-01-13T11:34:36.353Z,953
2023-01-13T11:35:38.207Z,952.9
2023-01-13T11:36:40.381Z,952.9
2023-01-13T11:37:42.106Z,952.9
2023-01-13T11:38:43.856Z,952.9
2023-01-13T11:39:45.841Z,952.9
2023-01-13T11:40:47.681Z,952.9
2023-01-13T11:41:49.620Z,952.8
2023-01-13T11:42:51.471Z,952.8
2023-01-13T11:43:53.302Z,952.8
2023-01-13T11:44:55.162Z,952.8
2023-01-13T11:45:57.006Z,952.8
2023-01-13T11:46:59.233Z,952.9
2023-01-13T11:48:01.126Z,952.9
2023-01-13T11:49:02.972Z,952.9
2023-01-13T11:50:04.837Z,952.9
2023-01-13T11:51:06.675Z,952.9
2023-01-13T11:52:08.637Z,952.8
2023-01-13T11:53:10.579Z,952.8
2023-01-13T11:54:12.416Z,952.8
2023-01-13T11:55:14.704Z,952.8
2023-01-13T11:56:16.533Z,952.9
2023-01-13T11:57:18.379Z,952.8
2023-01-13T11:58:20.238Z,952.8
2023-01-13T11:59:22.024Z,952.8
2023-01-13T12:00:24.130Z,952.8
2023-01-13T12:01:26.043Z,952.8
2023-01-13T12:02:28.225Z,952.8
2023-01-13T12:03:30.514Z,952.8
2023-01-13T12:04:32.457Z,952.8
2023-01-13T12:05:34.418Z,952.8
2023-01-13T12:06:36.591Z,952.8
2023-01-13T12:07:38.549Z,952.8
2023-01-13T12:08:40.480Z,952.8
2023-01-13T12:09:42.318Z,952.8
2023-01-13T12:10:44.308Z,952.8
2023-01-13T12:11:46.342Z,952.8
2023-01-13T12:12:48.201Z,952.7
2023-01-13T12:13:50.049Z,952.7
2023-01-13T12:14:51.835Z,952.8
2023-01-13T12:15:53.692Z,952.7
2023-01-13T12:16:55.955Z,952.7
2023-01-13T12:17:57.952Z,952.8
2023-01-13T12:18:59.912Z,952.8
2023-01-13T12:20:01.851Z,952.7
2023-01-13T12:21:03.771Z,952.7
2023-01-13T12:22:05.652Z,952.7
2023-01-13T12:23:07.601Z,952.7
2023-01-13T12:24:10.068Z,952.7
2023-01-13T12:25:12.019Z,952.7
2023-01-13T12:26:14.021Z,952.7
2023-01-13T12:27:16.157Z,952.7
2023-01-13T12:28:18.562Z,952.7
2023-01-13T12:29:20.455Z,952.7
2023-01-13T12:30:22.303Z,952.7
2023-01-13T12:31:24.465Z,952.7
2023-01-13T12:32:26.333Z,952.7
2023-01-13T12:33:28.107Z,952.7
2023-01-13T12:34:29.997Z,952.7
2023-01-13T12:35:31.948Z,952.8
2023-01-13T12:36:33.906Z,952.7
2023-01-13T12:37:35.848Z,952.7
2023-01-13T12:38:38.274Z,952.7
2023-01-13T12:39:40.277Z,952.8
2023-01-13T12:40:42.237Z,952.8
2023-01-13T12:41:44.138Z,952.7
2023-01-13T12:42:46.125Z,952.8
2023-01-13T12:43:48.086Z,952.8
2023-01-13T12:44:50.046Z,952.7
2023-01-13T12:45:52.152Z,952.7
2023-01-13T12:46:54.040Z,952.7
2023-01-13T12:47:56.043Z,952.8
2023-01-13T12:48:57.967Z,952.8
2023-01-13T12:49:59.748Z,952.7
2023-01-13T12:51:02.131Z,952.7
2023-01-13T12:52:04.029Z,952.8
2023-01-13T12:53:05.987Z,952.8
2023-01-13T12:54:07.917Z,952.8
2023-01-13T12:55:09.725Z,952.8
2023-01-13T12:56:11.571Z,952.8
2023-01-13T12:57:13.299Z,952.8
2023-01-13T12:58:15.271Z,952.8
2023-01-13T12:59:17.495Z,952.8
2023-01-13T13:00:19.423Z,952.8
2023-01-13T13:01:21.702Z,952.7
2023-01-13T13:02:23.969Z,952.8
2023-01-13T13:03:26.359Z,952.8
2023-01-13T13:04:28.172Z,952.8
2023-01-13T13:05:30.008Z,952.8
2023-01-13T13:06:31.956Z,952.8
2023-01-13T13:07:34.237Z,952.9
2023-01-13T13:08:36.039Z,952.8
2023-01-13T13:09:37.925Z,952.9
2023-01-13T13:10:39.772Z,952.8
2023-01-13T13:11:41.860Z,952.9
2023-01-13T13:12:44.064Z,952.9
2023-01-13T13:13:46.037Z,952.9
2023-01-13T13:14:48.697Z,952.9
2023-01-13T13:15:50.661Z,952.9
2023-01-13T13:16:52.839Z,952.9
2023-01-13T13:17:54.890Z,952.9
2023-01-13T13:18:56.701Z,952.9
2023-01-13T13:19:58.884Z,953
2023-01-13T13:21:05.328Z,952.9
2023-01-13T13:22:07.792Z,953
2023-01-13T13:23:09.746Z,952.9
2023-01-13T13:24:11.724Z,953
2023-01-13T13:25:14.086Z,952.9